sensor_id;sensor_type;location;lat;lon;timestamp;P1;durP1;ratioP1;P2;durP2;ratioP2
11267;SDS011;49397;47.474;9.416;2022-12-29T00:01:28;2.10;;;2.00;;
11267;SDS011;49397;47.474;9.416;2022-12-29T00:03:54;2.07;;;1.80;;
11267;SDS011;49397;47.474;9.416;2022-12-29T00:06:19;3.50;;;2.00;;
11267;SDS011;49397;47.474;9.416;2022-12-29T00:08:45;1.80;;;1.70;;
11267;SDS011;49397;47.474;9.416;2022-12-29T00:13:38;1.80;;;1.70;;
11267;SDS011;49397;47.474;9.416;2022-12-29T00:16:22;2.73;;;2.43;;
11267;SDS011;49397;47.474;9.416;2022-12-29T00:18:49;3.43;;;1.87;;
11267;SDS011;49397;47.474;9.416;2022-12-29T00:21:16;2.00;;;1.90;;
11267;SDS011;49397;47.474;9.416;2022-12-29T00:24:01;4.53;;;1.80;;
11267;SDS011;49397;47.474;9.416;2022-12-29T00:26:47;1.53;;;1.53;;
11267;SDS011;49397;47.474;9.416;2022-12-29T00:29:36;2.00;;;1.90;;
11267;SDS011;49397;47.474;9.416;2022-12-29T00:32:20;1.87;;;1.77;;
11267;SDS011;49397;47.474;9.416;2022-12-29T00:35:04;1.80;;;1.70;;
11267;SDS011;49397;47.474;9.416;2022-12-29T00:37:40;1.90;;;1.80;;
11267;SDS011;49397;47.474;9.416;2022-12-29T00:40:26;1.63;;;1.53;;
11267;SDS011;49397;47.474;9.416;2022-12-29T00:43:10;1.83;;;1.73;;
11267;SDS011;49397;47.474;9.416;2022-12-29T00:45:54;2.00;;;1.90;;
11267;SDS011;49397;47.474;9.416;2022-12-29T00:48:20;1.97;;;1.87;;
11267;SDS011;49397;47.474;9.416;2022-12-29T00:51:04;2.60;;;1.80;;
11267;SDS011;49397;47.474;9.416;2022-12-29T00:53:30;2.07;;;1.97;;
11267;SDS011;49397;47.474;9.416;2022-12-29T00:55:57;2.67;;;2.00;;
11267;SDS011;49397;47.474;9.416;2022-12-29T00:58:22;1.67;;;1.67;;
11267;SDS011;49397;47.474;9.416;2022-12-29T01:00:48;1.63;;;1.53;;
11267;SDS011;49397;47.474;9.416;2022-12-29T01:03:13;2.17;;;1.67;;
11267;SDS011;49397;47.474;9.416;2022-12-29T01:05:39;1.60;;;1.50;;
11267;SDS011;49397;47.474;9.416;2022-12-29T01:08:04;2.67;;;2.20;;
11267;SDS011;49397;47.474;9.416;2022-12-29T01:10:30;2.37;;;2.17;;
11267;SDS011;49397;47.474;9.416;2022-12-29T01:12:55;3.10;;;1.90;;
11267;SDS011;49397;47.474;9.416;2022-12-29T01:15:21;2.00;;;1.90;;
11267;SDS011;49397;47.474;9.416;2022-12-29T01:17:46;2.13;;;1.73;;
11267;SDS011;49397;47.474;9.416;2022-12-29T01:20:12;2.93;;;2.23;;
11267;SDS011;49397;47.474;9.416;2022-12-29T01:22:38;2.10;;;2.00;;
11267;SDS011;49397;47.474;9.416;2022-12-29T01:25:04;4.27;;;1.50;;
11267;SDS011;49397;47.474;9.416;2022-12-29T01:27:30;2.20;;;1.57;;
11267;SDS011;49397;47.474;9.416;2022-12-29T01:29:56;1.50;;;1.50;;
11267;SDS011;49397;47.474;9.416;2022-12-29T01:32:21;2.23;;;1.40;;
11267;SDS011;49397;47.474;9.416;2022-12-29T01:34:47;1.33;;;1.33;;
11267;SDS011;49397;47.474;9.416;2022-12-29T01:37:12;1.93;;;1.50;;
11267;SDS011;49397;47.474;9.416;2022-12-29T01:39:38;1.70;;;1.60;;
11267;SDS011;49397;47.474;9.416;2022-12-29T01:42:03;1.73;;;1.40;;
11267;SDS011;49397;47.474;9.416;2022-12-29T01:47:19;1.30;;;1.30;;
11267;SDS011;49397;47.474;9.416;2022-12-29T01:49:52;1.63;;;1.63;;
11267;SDS011;49397;47.474;9.416;2022-12-29T01:52:20;1.63;;;1.60;;
11267;SDS011;49397;47.474;9.416;2022-12-29T01:54:50;1.80;;;1.70;;
11267;SDS011;49397;47.474;9.416;2022-12-29T01:57:21;2.27;;;1.40;;
11267;SDS011;49397;47.474;9.416;2022-12-29T02:00:10;1.83;;;1.60;;
11267;SDS011;49397;47.474;9.416;2022-12-29T02:02:37;1.50;;;1.50;;
11267;SDS011;49397;47.474;9.416;2022-12-29T02:05:05;1.80;;;1.70;;
11267;SDS011;49397;47.474;9.416;2022-12-29T02:07:35;1.60;;;1.50;;
11267;SDS011;49397;47.474;9.416;2022-12-29T02:10:03;1.87;;;1.77;;
11267;SDS011;49397;47.474;9.416;2022-12-29T02:12:29;1.73;;;1.63;;
11267;SDS011;49397;47.474;9.416;2022-12-29T02:14:55;2.47;;;1.80;;
11267;SDS011;49397;47.474;9.416;2022-12-29T02:17:38;1.67;;;1.60;;
11267;SDS011;49397;47.474;9.416;2022-12-29T02:31:16;2.60;;;1.87;;
11267;SDS011;49397;47.474;9.416;2022-12-29T02:36:25;3.00;;;2.13;;
11267;SDS011;49397;47.474;9.416;2022-12-29T02:39:07;2.13;;;1.93;;
11267;SDS011;49397;47.474;9.416;2022-12-29T02:44:34;1.97;;;1.83;;
11267;SDS011;49397;47.474;9.416;2022-12-29T02:50:47;1.73;;;1.63;;
11267;SDS011;49397;47.474;9.416;2022-12-29T02:53:18;1.90;;;1.80;;
11267;SDS011;49397;47.474;9.416;2022-12-29T02:56:06;3.57;;;2.50;;
11267;SDS011;49397;47.474;9.416;2022-12-29T02:58:31;1.63;;;1.53;;
11267;SDS011;49397;47.474;9.416;2022-12-29T03:12:06;2.07;;;1.97;;
11267;SDS011;49397;47.474;9.416;2022-12-29T03:14:44;2.40;;;2.20;;
11267;SDS011;49397;47.474;9.416;2022-12-29T03:17:35;2.97;;;2.07;;
11267;SDS011;49397;47.474;9.416;2022-12-29T03:20:10;1.80;;;1.70;;
11267;SDS011;49397;47.474;9.416;2022-12-29T03:22:44;1.90;;;1.80;;
11267;SDS011;49397;47.474;9.416;2022-12-29T03:27:42;2.70;;;1.97;;
11267;SDS011;49397;47.474;9.416;2022-12-29T03:30:12;1.77;;;1.67;;
11267;SDS011;49397;47.474;9.416;2022-12-29T03:32:41;2.23;;;2.03;;
11267;SDS011;49397;47.474;9.416;2022-12-29T03:35:09;2.60;;;2.40;;
11267;SDS011;49397;47.474;9.416;2022-12-29T03:37:39;2.03;;;1.93;;
11267;SDS011;49397;47.474;9.416;2022-12-29T03:40:08;2.00;;;1.90;;
11267;SDS011;49397;47.474;9.416;2022-12-29T03:42:35;1.93;;;1.83;;
11267;SDS011;49397;47.474;9.416;2022-12-29T03:45:02;1.90;;;1.73;;
11267;SDS011;49397;47.474;9.416;2022-12-29T03:47:29;2.13;;;2.00;;
11267;SDS011;49397;47.474;9.416;2022-12-29T03:49:55;2.97;;;1.70;;
11267;SDS011;49397;47.474;9.416;2022-12-29T03:52:20;2.20;;;2.10;;
11267;SDS011;49397;47.474;9.416;2022-12-29T03:54:46;2.10;;;2.00;;
11267;SDS011;49397;47.474;9.416;2022-12-29T03:57:12;2.13;;;1.90;;
11267;SDS011;49397;47.474;9.416;2022-12-29T03:59:37;2.50;;;2.30;;
11267;SDS011;49397;47.474;9.416;2022-12-29T04:02:03;2.80;;;2.37;;
11267;SDS011;49397;47.474;9.416;2022-12-29T04:04:28;2.17;;;2.07;;
11267;SDS011;49397;47.474;9.416;2022-12-29T04:06:54;2.07;;;1.87;;
11267;SDS011;49397;47.474;9.416;2022-12-29T04:09:19;1.83;;;1.73;;
11267;SDS011;49397;47.474;9.416;2022-12-29T04:11:45;2.53;;;2.10;;
11267;SDS011;49397;47.474;9.416;2022-12-29T04:14:10;2.17;;;1.97;;
11267;SDS011;49397;47.474;9.416;2022-12-29T04:16:36;1.90;;;1.80;;
11267;SDS011;49397;47.474;9.416;2022-12-29T04:19:04;2.33;;;2.13;;
11267;SDS011;49397;47.474;9.416;2022-12-29T04:21:30;3.70;;;1.87;;
11267;SDS011;49397;47.474;9.416;2022-12-29T04:23:56;2.10;;;1.90;;
11267;SDS011;49397;47.474;9.416;2022-12-29T04:26:21;2.20;;;2.00;;
11267;SDS011;49397;47.474;9.416;2022-12-29T04:28:47;2.10;;;1.90;;
11267;SDS011;49397;47.474;9.416;2022-12-29T04:31:12;2.07;;;1.97;;
11267;SDS011;49397;47.474;9.416;2022-12-29T04:33:38;2.10;;;2.00;;
11267;SDS011;49397;47.474;9.416;2022-12-29T04:36:03;2.57;;;2.20;;
11267;SDS011;49397;47.474;9.416;2022-12-29T04:38:29;2.20;;;2.00;;
11267;SDS011;49397;47.474;9.416;2022-12-29T04:40:54;2.13;;;2.03;;
11267;SDS011;49397;47.474;9.416;2022-12-29T04:43:20;2.43;;;2.20;;
11267;SDS011;49397;47.474;9.416;2022-12-29T04:45:47;4.80;;;2.70;;
11267;SDS011;49397;47.474;9.416;2022-12-29T04:48:13;1.73;;;1.63;;
11267;SDS011;49397;47.474;9.416;2022-12-29T04:50:39;1.97;;;1.73;;
11267;SDS011;49397;47.474;9.416;2022-12-29T04:53:05;1.83;;;1.73;;
11267;SDS011;49397;47.474;9.416;2022-12-29T04:55:31;2.43;;;2.23;;
11267;SDS011;49397;47.474;9.416;2022-12-29T04:57:57;2.43;;;2.13;;
11267;SDS011;49397;47.474;9.416;2022-12-29T05:00:22;1.83;;;1.73;;
11267;SDS011;49397;47.474;9.416;2022-12-29T05:02:48;2.67;;;2.03;;
11267;SDS011;49397;47.474;9.416;2022-12-29T05:05:13;2.70;;;2.23;;
11267;SDS011;49397;47.474;9.416;2022-12-29T05:07:39;3.87;;;2.43;;
11267;SDS011;49397;47.474;9.416;2022-12-29T05:10:05;3.53;;;2.70;;
11267;SDS011;49397;47.474;9.416;2022-12-29T05:12:32;2.83;;;2.70;;
11267;SDS011;49397;47.474;9.416;2022-12-29T05:14:58;1.90;;;1.80;;
11267;SDS011;49397;47.474;9.416;2022-12-29T05:17:24;2.40;;;2.20;;
11267;SDS011;49397;47.474;9.416;2022-12-29T05:19:50;5.00;;;3.53;;
11267;SDS011;49397;47.474;9.416;2022-12-29T05:22:15;4.37;;;2.50;;
11267;SDS011;49397;47.474;9.416;2022-12-29T05:24:41;2.83;;;2.23;;
11267;SDS011;49397;47.474;9.416;2022-12-29T05:27:06;1.70;;;1.60;;
11267;SDS011;49397;47.474;9.416;2022-12-29T05:29:32;7.07;;;3.70;;
11267;SDS011;49397;47.474;9.416;2022-12-29T05:31:57;4.40;;;2.93;;
11267;SDS011;49397;47.474;9.416;2022-12-29T05:34:23;4.30;;;2.77;;
11267;SDS011;49397;47.474;9.416;2022-12-29T05:36:48;1.97;;;1.87;;
11267;SDS011;49397;47.474;9.416;2022-12-29T05:39:14;2.17;;;2.07;;
11267;SDS011;49397;47.474;9.416;2022-12-29T05:41:40;2.23;;;2.00;;
11267;SDS011;49397;47.474;9.416;2022-12-29T05:44:05;2.40;;;2.20;;
11267;SDS011;49397;47.474;9.416;2022-12-29T05:46:31;2.37;;;2.27;;
11267;SDS011;49397;47.474;9.416;2022-12-29T05:48:57;2.47;;;2.27;;
11267;SDS011;49397;47.474;9.416;2022-12-29T05:51:22;3.10;;;1.87;;
11267;SDS011;49397;47.474;9.416;2022-12-29T05:53:48;1.80;;;1.60;;
11267;SDS011;49397;47.474;9.416;2022-12-29T05:56:14;2.13;;;2.00;;
11267;SDS011;49397;47.474;9.416;2022-12-29T05:58:39;2.40;;;2.20;;
11267;SDS011;49397;47.474;9.416;2022-12-29T06:01:05;2.63;;;2.40;;
11267;SDS011;49397;47.474;9.416;2022-12-29T06:03:30;3.53;;;3.10;;
11267;SDS011;49397;47.474;9.416;2022-12-29T06:05:56;3.60;;;2.60;;
11267;SDS011;49397;47.474;9.416;2022-12-29T06:08:21;2.13;;;1.93;;
11267;SDS011;49397;47.474;9.416;2022-12-29T06:10:47;2.17;;;2.07;;
11267;SDS011;49397;47.474;9.416;2022-12-29T06:13:12;2.90;;;2.60;;
11267;SDS011;49397;47.474;9.416;2022-12-29T06:15:38;1.90;;;1.80;;
11267;SDS011;49397;47.474;9.416;2022-12-29T06:18:03;2.53;;;1.87;;
11267;SDS011;49397;47.474;9.416;2022-12-29T06:20:29;3.13;;;2.10;;
11267;SDS011;49397;47.474;9.416;2022-12-29T06:22:54;2.07;;;1.97;;
11267;SDS011;49397;47.474;9.416;2022-12-29T06:25:20;1.90;;;1.80;;
11267;SDS011;49397;47.474;9.416;2022-12-29T06:27:45;2.20;;;1.70;;
11267;SDS011;49397;47.474;9.416;2022-12-29T06:30:11;2.17;;;1.93;;
11267;SDS011;49397;47.474;9.416;2022-12-29T06:32:38;1.80;;;1.70;;
11267;SDS011;49397;47.474;9.416;2022-12-29T06:35:04;2.00;;;1.90;;
11267;SDS011;49397;47.474;9.416;2022-12-29T06:37:31;1.83;;;1.73;;
11267;SDS011;49397;47.474;9.416;2022-12-29T06:39:56;2.10;;;1.90;;
11267;SDS011;49397;47.474;9.416;2022-12-29T06:42:22;1.83;;;1.80;;
11267;SDS011;49397;47.474;9.416;2022-12-29T06:44:47;2.00;;;1.90;;
11267;SDS011;49397;47.474;9.416;2022-12-29T06:47:12;2.43;;;2.23;;
11267;SDS011;49397;47.474;9.416;2022-12-29T06:49:38;2.13;;;1.70;;
11267;SDS011;49397;47.474;9.416;2022-12-29T06:52:03;1.87;;;1.77;;
11267;SDS011;49397;47.474;9.416;2022-12-29T06:54:30;2.13;;;1.80;;
11267;SDS011;49397;47.474;9.416;2022-12-29T06:56:56;2.27;;;2.07;;
11267;SDS011;49397;47.474;9.416;2022-12-29T06:59:21;4.07;;;2.40;;
11267;SDS011;49397;47.474;9.416;2022-12-29T07:01:47;3.00;;;2.47;;
11267;SDS011;49397;47.474;9.416;2022-12-29T07:04:13;3.43;;;3.13;;
11267;SDS011;49397;47.474;9.416;2022-12-29T07:06:39;1.53;;;1.50;;
11267;SDS011;49397;47.474;9.416;2022-12-29T07:09:06;2.30;;;2.10;;
11267;SDS011;49397;47.474;9.416;2022-12-29T07:11:32;2.23;;;2.13;;
11267;SDS011;49397;47.474;9.416;2022-12-29T07:13:58;2.60;;;1.83;;
11267;SDS011;49397;47.474;9.416;2022-12-29T07:16:24;2.40;;;2.03;;
11267;SDS011;49397;47.474;9.416;2022-12-29T07:18:49;4.60;;;2.83;;
11267;SDS011;49397;47.474;9.416;2022-12-29T07:21:15;9.03;;;2.50;;
11267;SDS011;49397;47.474;9.416;2022-12-29T07:23:41;1.93;;;1.83;;
11267;SDS011;49397;47.474;9.416;2022-12-29T07:26:07;2.27;;;2.07;;
11267;SDS011;49397;47.474;9.416;2022-12-29T07:28:35;1.97;;;1.87;;
11267;SDS011;49397;47.474;9.416;2022-12-29T07:31:01;1.90;;;1.80;;
11267;SDS011;49397;47.474;9.416;2022-12-29T07:33:30;2.77;;;2.53;;
11267;SDS011;49397;47.474;9.416;2022-12-29T07:35:56;3.03;;;2.17;;
11267;SDS011;49397;47.474;9.416;2022-12-29T07:38:23;6.47;;;2.20;;
11267;SDS011;49397;47.474;9.416;2022-12-29T07:40:48;3.27;;;2.00;;
11267;SDS011;49397;47.474;9.416;2022-12-29T07:43:14;3.83;;;2.87;;
11267;SDS011;49397;47.474;9.416;2022-12-29T07:45:39;2.70;;;2.50;;
11267;SDS011;49397;47.474;9.416;2022-12-29T07:48:05;2.63;;;2.40;;
11267;SDS011;49397;47.474;9.416;2022-12-29T07:50:34;1.87;;;1.77;;
11267;SDS011;49397;47.474;9.416;2022-12-29T07:53:01;2.00;;;1.90;;
11267;SDS011;49397;47.474;9.416;2022-12-29T07:55:27;4.37;;;2.10;;
11267;SDS011;49397;47.474;9.416;2022-12-29T07:57:53;1.83;;;1.73;;
11267;SDS011;49397;47.474;9.416;2022-12-29T08:00:19;1.87;;;1.80;;
11267;SDS011;49397;47.474;9.416;2022-12-29T08:02:44;2.03;;;1.90;;
11267;SDS011;49397;47.474;9.416;2022-12-29T08:05:10;3.53;;;2.20;;
11267;SDS011;49397;47.474;9.416;2022-12-29T08:07:35;3.07;;;2.13;;
11267;SDS011;49397;47.474;9.416;2022-12-29T08:10:01;3.03;;;2.00;;
11267;SDS011;49397;47.474;9.416;2022-12-29T08:12:28;3.40;;;1.97;;
11267;SDS011;49397;47.474;9.416;2022-12-29T08:14:53;2.20;;;2.10;;
11267;SDS011;49397;47.474;9.416;2022-12-29T08:17:19;2.27;;;2.07;;
11267;SDS011;49397;47.474;9.416;2022-12-29T08:19:44;3.37;;;2.07;;
11267;SDS011;49397;47.474;9.416;2022-12-29T08:22:10;1.90;;;1.80;;
11267;SDS011;49397;47.474;9.416;2022-12-29T08:24:35;1.90;;;1.80;;
11267;SDS011;49397;47.474;9.416;2022-12-29T08:27:01;3.43;;;2.43;;
11267;SDS011;49397;47.474;9.416;2022-12-29T08:29:27;3.60;;;2.50;;
11267;SDS011;49397;47.474;9.416;2022-12-29T08:31:52;2.13;;;1.80;;
11267;SDS011;49397;47.474;9.416;2022-12-29T08:34:18;1.90;;;1.80;;
11267;SDS011;49397;47.474;9.416;2022-12-29T08:36:43;2.30;;;2.20;;
11267;SDS011;49397;47.474;9.416;2022-12-29T08:39:09;2.50;;;1.90;;
11267;SDS011;49397;47.474;9.416;2022-12-29T08:41:34;2.20;;;2.10;;
11267;SDS011;49397;47.474;9.416;2022-12-29T08:44:00;2.33;;;2.10;;
11267;SDS011;49397;47.474;9.416;2022-12-29T08:46:25;3.07;;;2.20;;
11267;SDS011;49397;47.474;9.416;2022-12-29T08:48:51;2.30;;;2.20;;
11267;SDS011;49397;47.474;9.416;2022-12-29T08:51:16;2.20;;;2.10;;
11267;SDS011;49397;47.474;9.416;2022-12-29T08:53:42;2.23;;;2.13;;
11267;SDS011;49397;47.474;9.416;2022-12-29T08:56:08;2.20;;;2.10;;
11267;SDS011;49397;47.474;9.416;2022-12-29T08:58:34;4.70;;;4.30;;
11267;SDS011;49397;47.474;9.416;2022-12-29T09:00:59;10.57;;;5.67;;
11267;SDS011;49397;47.474;9.416;2022-12-29T09:03:25;10.17;;;6.93;;
11267;SDS011;49397;47.474;9.416;2022-12-29T09:05:51;13.87;;;7.37;;
11267;SDS011;49397;47.474;9.416;2022-12-29T09:08:18;4.67;;;4.27;;
11267;SDS011;49397;47.474;9.416;2022-12-29T09:10:44;2.77;;;2.57;;
11267;SDS011;49397;47.474;9.416;2022-12-29T09:13:11;6.20;;;2.70;;
11267;SDS011;49397;47.474;9.416;2022-12-29T09:15:37;2.90;;;2.50;;
11267;SDS011;49397;47.474;9.416;2022-12-29T09:18:03;2.53;;;2.33;;
11267;SDS011;49397;47.474;9.416;2022-12-29T09:20:29;2.40;;;2.30;;
11267;SDS011;49397;47.474;9.416;2022-12-29T09:22:55;2.10;;;2.00;;
11267;SDS011;49397;47.474;9.416;2022-12-29T09:25:20;2.40;;;2.20;;
11267;SDS011;49397;47.474;9.416;2022-12-29T09:27:48;2.13;;;1.93;;
11267;SDS011;49397;47.474;9.416;2022-12-29T09:30:14;2.33;;;2.23;;
11267;SDS011;49397;47.474;9.416;2022-12-29T09:32:40;2.50;;;2.30;;
11267;SDS011;49397;47.474;9.416;2022-12-29T09:35:05;2.60;;;2.40;;
11267;SDS011;49397;47.474;9.416;2022-12-29T09:37:32;2.50;;;2.30;;
11267;SDS011;49397;47.474;9.416;2022-12-29T09:39:57;2.73;;;2.53;;
11267;SDS011;49397;47.474;9.416;2022-12-29T09:42:25;6.20;;;2.83;;
11267;SDS011;49397;47.474;9.416;2022-12-29T09:47:43;3.00;;;2.70;;
11267;SDS011;49397;47.474;9.416;2022-12-29T09:52:41;3.47;;;3.13;;
11267;SDS011;49397;47.474;9.416;2022-12-29T09:55:15;3.53;;;3.10;;
11267;SDS011;49397;47.474;9.416;2022-12-29T09:57:53;3.80;;;3.27;;
11267;SDS011;49397;47.474;9.416;2022-12-29T10:00:27;4.03;;;2.93;;
11267;SDS011;49397;47.474;9.416;2022-12-29T10:04:01;3.20;;;2.87;;
11267;SDS011;49397;47.474;9.416;2022-12-29T10:06:11;2.97;;;2.77;;
11267;SDS011;49397;47.474;9.416;2022-12-29T10:08:52;2.30;;;2.10;;
11267;SDS011;49397;47.474;9.416;2022-12-29T10:19:50;2.90;;;2.70;;
11267;SDS011;49397;47.474;9.416;2022-12-29T10:25:19;2.90;;;2.70;;
11267;SDS011;49397;47.474;9.416;2022-12-29T10:27:50;3.57;;;2.80;;
11267;SDS011;49397;47.474;9.416;2022-12-29T10:30:17;4.23;;;2.70;;
11267;SDS011;49397;47.474;9.416;2022-12-29T10:32:51;3.47;;;3.17;;
11267;SDS011;49397;47.474;9.416;2022-12-29T10:35:25;4.73;;;2.33;;
11267;SDS011;49397;47.474;9.416;2022-12-29T10:41:05;2.20;;;2.10;;
11267;SDS011;49397;47.474;9.416;2022-12-29T10:43:48;2.37;;;2.17;;
11267;SDS011;49397;47.474;9.416;2022-12-29T10:46:18;2.47;;;2.27;;
11267;SDS011;49397;47.474;9.416;2022-12-29T10:48:46;2.73;;;2.43;;
11267;SDS011;49397;47.474;9.416;2022-12-29T10:51:21;3.30;;;2.17;;
11267;SDS011;49397;47.474;9.416;2022-12-29T10:56:41;3.00;;;2.20;;
11267;SDS011;49397;47.474;9.416;2022-12-29T10:59:23;2.67;;;2.47;;
11267;SDS011;49397;47.474;9.416;2022-12-29T11:02:15;2.60;;;2.40;;
11267;SDS011;49397;47.474;9.416;2022-12-29T11:07:19;2.63;;;2.50;;
11267;SDS011;49397;47.474;9.416;2022-12-29T11:09:46;3.77;;;3.13;;
11267;SDS011;49397;47.474;9.416;2022-12-29T11:12:25;1.90;;;1.80;;
11267;SDS011;49397;47.474;9.416;2022-12-29T11:15:26;3.43;;;2.40;;
11267;SDS011;49397;47.474;9.416;2022-12-29T11:17:49;2.00;;;1.90;;
11267;SDS011;49397;47.474;9.416;2022-12-29T11:23:03;1.97;;;1.87;;
11267;SDS011;49397;47.474;9.416;2022-12-29T11:25:30;1.50;;;1.50;;
11267;SDS011;49397;47.474;9.416;2022-12-29T11:28:00;3.07;;;1.70;;
11267;SDS011;49397;47.474;9.416;2022-12-29T11:30:39;1.70;;;1.70;;
11267;SDS011;49397;47.474;9.416;2022-12-29T11:33:05;2.60;;;1.97;;
11267;SDS011;49397;47.474;9.416;2022-12-29T11:35:43;1.87;;;1.77;;
11267;SDS011;49397;47.474;9.416;2022-12-29T11:38:22;1.47;;;1.47;;
11267;SDS011;49397;47.474;9.416;2022-12-29T11:40:50;1.63;;;1.53;;
11267;SDS011;49397;47.474;9.416;2022-12-29T11:45:54;2.07;;;1.97;;
11267;SDS011;49397;47.474;9.416;2022-12-29T11:48:21;3.03;;;1.80;;
11267;SDS011;49397;47.474;9.416;2022-12-29T11:50:52;1.67;;;1.57;;
11267;SDS011;49397;47.474;9.416;2022-12-29T11:53:21;1.70;;;1.60;;
11267;SDS011;49397;47.474;9.416;2022-12-29T11:55:50;2.53;;;2.07;;
11267;SDS011;49397;47.474;9.416;2022-12-29T11:58:19;2.00;;;1.90;;
11267;SDS011;49397;47.474;9.416;2022-12-29T12:00:44;2.03;;;1.93;;
11267;SDS011;49397;47.474;9.416;2022-12-29T12:03:19;2.40;;;1.80;;
11267;SDS011;49397;47.474;9.416;2022-12-29T12:11:23;2.20;;;2.10;;
11267;SDS011;49397;47.474;9.416;2022-12-29T12:16:49;2.20;;;2.10;;
11267;SDS011;49397;47.474;9.416;2022-12-29T12:22:20;2.00;;;1.90;;
11267;SDS011;49397;47.474;9.416;2022-12-29T12:25:37;2.10;;;2.00;;
11267;SDS011;49397;47.474;9.416;2022-12-29T12:30:33;1.70;;;1.67;;
11267;SDS011;49397;47.474;9.416;2022-12-29T12:33:10;1.63;;;1.53;;
11267;SDS011;49397;47.474;9.416;2022-12-29T12:44:27;2.37;;;2.27;;
11267;SDS011;49397;47.474;9.416;2022-12-29T12:50:00;3.70;;;3.23;;
11267;SDS011;49397;47.474;9.416;2022-12-29T12:52:58;5.00;;;2.87;;
11267;SDS011;49397;47.474;9.416;2022-12-29T12:55:38;4.77;;;2.83;;
11267;SDS011;49397;47.474;9.416;2022-12-29T13:01:38;3.03;;;2.70;;
11267;SDS011;49397;47.474;9.416;2022-12-29T13:12:29;11.30;;;6.73;;
11267;SDS011;49397;47.474;9.416;2022-12-29T13:23:15;6.97;;;4.70;;
11267;SDS011;49397;47.474;9.416;2022-12-29T13:34:48;5.63;;;4.03;;
11267;SDS011;49397;47.474;9.416;2022-12-29T13:37:22;4.33;;;3.37;;
11267;SDS011;49397;47.474;9.416;2022-12-29T13:39:56;3.50;;;3.20;;
11267;SDS011;49397;47.474;9.416;2022-12-29T13:42:24;3.50;;;3.20;;
11267;SDS011;49397;47.474;9.416;2022-12-29T13:49:54;4.43;;;4.00;;
11267;SDS011;49397;47.474;9.416;2022-12-29T14:00:32;16.97;;;6.77;;
11267;SDS011;49397;47.474;9.416;2022-12-29T14:03:35;10.07;;;5.70;;
11267;SDS011;49397;47.474;9.416;2022-12-29T14:06:12;12.70;;;5.90;;
11267;SDS011;49397;47.474;9.416;2022-12-29T14:08:39;9.60;;;5.10;;
11267;SDS011;49397;47.474;9.416;2022-12-29T14:11:07;7.13;;;5.37;;
11267;SDS011;49397;47.474;9.416;2022-12-29T14:13:39;7.27;;;4.90;;
11267;SDS011;49397;47.474;9.416;2022-12-29T14:16:09;3.77;;;3.00;;
11267;SDS011;49397;47.474;9.416;2022-12-29T14:18:50;3.60;;;2.73;;
11267;SDS011;49397;47.474;9.416;2022-12-29T14:23:43;3.33;;;3.07;;
11267;SDS011;49397;47.474;9.416;2022-12-29T14:33:40;3.97;;;3.40;;
11267;SDS011;49397;47.474;9.416;2022-12-29T14:39:01;3.13;;;2.90;;
11267;SDS011;49397;47.474;9.416;2022-12-29T14:41:32;4.17;;;3.20;;
11267;SDS011;49397;47.474;9.416;2022-12-29T14:49:33;4.50;;;2.97;;
11267;SDS011;49397;47.474;9.416;2022-12-29T14:52:07;4.53;;;2.73;;
11267;SDS011;49397;47.474;9.416;2022-12-29T14:54:50;3.77;;;2.80;;
11267;SDS011;49397;47.474;9.416;2022-12-29T14:57:24;5.03;;;2.50;;
11267;SDS011;49397;47.474;9.416;2022-12-29T14:59:54;2.60;;;2.40;;
11267;SDS011;49397;47.474;9.416;2022-12-29T15:02:25;5.10;;;2.67;;
11267;SDS011;49397;47.474;9.416;2022-12-29T15:04:58;3.63;;;2.53;;
11267;SDS011;49397;47.474;9.416;2022-12-29T15:07:26;3.20;;;2.90;;
11267;SDS011;49397;47.474;9.416;2022-12-29T15:09:56;4.17;;;2.77;;
11267;SDS011;49397;47.474;9.416;2022-12-29T15:12:42;3.37;;;2.70;;
11267;SDS011;49397;47.474;9.416;2022-12-29T15:15:21;2.60;;;2.40;;
11267;SDS011;49397;47.474;9.416;2022-12-29T15:17:49;2.93;;;2.60;;
11267;SDS011;49397;47.474;9.416;2022-12-29T15:22:53;3.00;;;2.37;;
11267;SDS011;49397;47.474;9.416;2022-12-29T15:25:20;3.57;;;2.40;;
11267;SDS011;49397;47.474;9.416;2022-12-29T15:27:52;3.00;;;2.80;;
11267;SDS011;49397;47.474;9.416;2022-12-29T15:30:22;4.90;;;2.20;;
11267;SDS011;49397;47.474;9.416;2022-12-29T15:32:48;3.07;;;2.73;;
11267;SDS011;49397;47.474;9.416;2022-12-29T15:37:55;2.60;;;2.40;;
11267;SDS011;49397;47.474;9.416;2022-12-29T15:40:22;4.77;;;3.27;;
11267;SDS011;49397;47.474;9.416;2022-12-29T15:45:48;3.07;;;2.83;;
11267;SDS011;49397;47.474;9.416;2022-12-29T15:48:16;3.17;;;2.77;;
11267;SDS011;49397;47.474;9.416;2022-12-29T15:50:45;3.17;;;2.90;;
11267;SDS011;49397;47.474;9.416;2022-12-29T15:53:12;3.23;;;2.57;;
11267;SDS011;49397;47.474;9.416;2022-12-29T15:55:44;3.27;;;2.97;;
11267;SDS011;49397;47.474;9.416;2022-12-29T15:58:22;3.83;;;2.60;;
11267;SDS011;49397;47.474;9.416;2022-12-29T16:00:53;3.20;;;2.97;;
11267;SDS011;49397;47.474;9.416;2022-12-29T16:03:24;3.13;;;2.83;;
11267;SDS011;49397;47.474;9.416;2022-12-29T16:05:56;3.33;;;2.80;;
11267;SDS011;49397;47.474;9.416;2022-12-29T16:08:32;3.27;;;2.97;;
11267;SDS011;49397;47.474;9.416;2022-12-29T16:11:03;4.67;;;2.67;;
11267;SDS011;49397;47.474;9.416;2022-12-29T16:14:06;2.47;;;2.27;;
11267;SDS011;49397;47.474;9.416;2022-12-29T16:16:35;3.80;;;2.57;;
11267;SDS011;49397;47.474;9.416;2022-12-29T16:19:09;3.10;;;2.80;;
11267;SDS011;49397;47.474;9.416;2022-12-29T16:21:39;2.90;;;2.63;;
11267;SDS011;49397;47.474;9.416;2022-12-29T16:24:08;2.93;;;2.63;;
11267;SDS011;49397;47.474;9.416;2022-12-29T16:26:39;3.00;;;2.70;;
11267;SDS011;49397;47.474;9.416;2022-12-29T16:29:14;3.10;;;2.90;;
11267;SDS011;49397;47.474;9.416;2022-12-29T16:31:54;3.67;;;2.93;;
11267;SDS011;49397;47.474;9.416;2022-12-29T16:34:31;4.00;;;2.77;;
11267;SDS011;49397;47.474;9.416;2022-12-29T16:37:19;3.00;;;2.70;;
11267;SDS011;49397;47.474;9.416;2022-12-29T16:39:53;5.10;;;2.70;;
11267;SDS011;49397;47.474;9.416;2022-12-29T16:45:34;2.87;;;2.67;;
11267;SDS011;49397;47.474;9.416;2022-12-29T16:48:11;2.40;;;2.20;;
11267;SDS011;49397;47.474;9.416;2022-12-29T16:50:44;3.67;;;2.50;;
11267;SDS011;49397;47.474;9.416;2022-12-29T16:55:49;2.90;;;2.50;;
11267;SDS011;49397;47.474;9.416;2022-12-29T16:58:21;3.30;;;2.43;;
11267;SDS011;49397;47.474;9.416;2022-12-29T17:00:49;3.27;;;2.80;;
11267;SDS011;49397;47.474;9.416;2022-12-29T17:03:17;3.33;;;3.03;;
11267;SDS011;49397;47.474;9.416;2022-12-29T17:05:43;3.30;;;2.53;;
11267;SDS011;49397;47.474;9.416;2022-12-29T17:08:18;2.50;;;2.30;;
11267;SDS011;49397;47.474;9.416;2022-12-29T17:10:54;2.93;;;2.00;;
11267;SDS011;49397;47.474;9.416;2022-12-29T17:13:40;2.53;;;2.33;;
11267;SDS011;49397;47.474;9.416;2022-12-29T17:16:06;2.40;;;2.20;;
11267;SDS011;49397;47.474;9.416;2022-12-29T17:18:34;2.27;;;2.10;;
11267;SDS011;49397;47.474;9.416;2022-12-29T17:20:59;4.60;;;2.57;;
11267;SDS011;49397;47.474;9.416;2022-12-29T17:23:25;2.80;;;2.33;;
11267;SDS011;49397;47.474;9.416;2022-12-29T17:25:52;2.87;;;2.63;;
11267;SDS011;49397;47.474;9.416;2022-12-29T17:28:20;4.23;;;3.10;;
11267;SDS011;49397;47.474;9.416;2022-12-29T17:30:49;3.63;;;3.00;;
11267;SDS011;49397;47.474;9.416;2022-12-29T17:33:17;3.80;;;3.40;;
11267;SDS011;49397;47.474;9.416;2022-12-29T17:35:44;6.73;;;2.90;;
11267;SDS011;49397;47.474;9.416;2022-12-29T17:38:33;2.70;;;2.50;;
11267;SDS011;49397;47.474;9.416;2022-12-29T17:40:59;4.47;;;2.70;;
11267;SDS011;49397;47.474;9.416;2022-12-29T17:43:26;6.87;;;2.90;;
11267;SDS011;49397;47.474;9.416;2022-12-29T17:45:52;2.83;;;2.50;;
11267;SDS011;49397;47.474;9.416;2022-12-29T17:48:19;2.70;;;2.50;;
11267;SDS011;49397;47.474;9.416;2022-12-29T17:50:49;2.90;;;2.60;;
11267;SDS011;49397;47.474;9.416;2022-12-29T17:53:18;3.93;;;2.93;;